sensor_id;sensor_type;location;lat;lon;timestamp;pressure;altitude;pressure_sealevel;temperature;humidity
70971;BME280;58632;51.718;19.446;2024-02-14T00:02:22;100058.61;;;3.97;100.00
70971;BME280;58632;51.718;19.446;2024-02-14T00:04:48;100058.01;;;3.96;100.00
70971;BME280;58632;51.718;19.446;2024-02-14T00:07:13;100058.44;;;3.96;100.00
70971;BME280;58632;51.718;19.446;2024-02-14T00:09:39;100060.66;;;3.94;100.00
70971;BME280;58632;51.718;19.446;2024-02-14T00:12:05;100059.52;;;3.94;100.00
70971;BME280;58632;51.718;19.446;2024-02-14T00:14:31;100069.06;;;3.94;100.00
70971;BME280;58632;51.718;19.446;2024-02-14T00:16:56;100072.05;;;3.96;100.00
70971;BME280;58632;51.718;19.446;2024-02-14T00:19:23;100071.77;;;3.97;100.00
70971;BME280;58632;51.718;19.446;2024-02-14T00:21:48;100076.82;;;3.97;100.00
70971;BME280;58632;51.718;19.446;2024-02-14T00:24:14;100078.61;;;4.00;100.00
70971;BME280;58632;51.718;19.446;2024-02-14T00:26:41;100078.29;;;4.03;100.00
70971;BME280;58632;51.718;19.446;2024-02-14T00:29:06;100077.85;;;4.06;100.00
70971;BME280;58632;51.718;19.446;2024-02-14T00:31:32;100079.80;;;4.06;100.00
70971;BME280;58632;51.718;19.446;2024-02-14T00:33:57;100084.08;;;4.07;100.00
70971;BME280;58632;51.718;19.446;2024-02-14T00:36:22;100087.60;;;4.10;100.00
70971;BME280;58632;51.718;19.446;2024-02-14T00:38:48;100091.27;;;4.13;100.00
70971;BME280;58632;51.718;19.446;2024-02-14T00:41:13;100093.07;;;4.17;100.00
70971;BME280;58632;51.718;19.446;2024-02-14T00:43:39;100090.41;;;4.19;100.00
70971;BME280;58632;51.718;19.446;2024-02-14T00:46:04;100093.50;;;4.19;100.00
70971;BME280;58632;51.718;19.446;2024-02-14T00:48:31;100095.40;;;4.18;100.00
70971;BME280;58632;51.718;19.446;2024-02-14T00:50:56;100093.52;;;4.15;100.00
70971;BME280;58632;51.718;19.446;2024-02-14T00:53:22;100091.16;;;4.12;100.00
70971;BME280;58632;51.718;19.446;2024-02-14T00:55:47;100089.98;;;4.09;100.00
70971;BME280;58632;51.718;19.446;2024-02-14T00:58:12;100087.21;;;4.05;100.00
70971;BME280;58632;51.718;19.446;2024-02-14T01:00:38;100087.39;;;4.01;100.00
70971;BME280;58632;51.718;19.446;2024-02-14T01:03:03;100088.35;;;3.96;100.00
70971;BME280;58632;51.718;19.446;2024-02-14T01:05:29;100088.90;;;3.95;100.00
70971;BME280;58632;51.718;19.446;2024-02-14T01:07:54;100088.42;;;3.95;100.00
70971;BME280;58632;51.718;19.446;2024-02-14T01:10:20;100087.32;;;3.94;100.00
70971;BME280;58632;51.718;19.446;2024-02-14T01:12:46;100084.83;;;3.94;100.00
70971;BME280;58632;51.718;19.446;2024-02-14T01:15:11;100082.17;;;3.94;100.00
70971;BME280;58632;51.718;19.446;2024-02-14T01:17:36;100079.68;;;3.92;100.00
70971;BME280;58632;51.718;19.446;2024-02-14T01:20:06;100080.92;;;3.89;100.00
70971;BME280;58632;51.718;19.446;2024-02-14T01:22:33;100079.95;;;3.84;100.00
70971;BME280;58632;51.718;19.446;2024-02-14T01:24:58;100078.31;;;3.77;100.00
70971;BME280;58632;51.718;19.446;2024-02-14T01:27:24;100077.08;;;3.72;100.00
70971;BME280;58632;51.718;19.446;2024-02-14T01:29:49;100076.14;;;3.67;100.00
70971;BME280;58632;51.718;19.446;2024-02-14T01:32:15;100074.77;;;3.59;100.00
70971;BME280;58632;51.718;19.446;2024-02-14T01:34:40;100074.83;;;3.52;100.00
70971;BME280;58632;51.718;19.446;2024-02-14T01:37:07;100072.91;;;3.42;100.00
70971;BME280;58632;51.718;19.446;2024-02-14T01:39:35;100067.85;;;3.32;100.00
70971;BME280;58632;51.718;19.446;2024-02-14T01:42:00;100070.73;;;3.20;100.00
70971;BME280;58632;51.718;19.446;2024-02-14T01:44:26;100068.58;;;3.09;100.00
70971;BME280;58632;51.718;19.446;2024-02-14T01:46:51;100073.75;;;2.99;100.00
70971;BME280;58632;51.718;19.446;2024-02-14T01:49:18;100072.56;;;2.89;100.00
70971;BME280;58632;51.718;19.446;2024-02-14T01:51:44;100066.63;;;2.80;100.00
70971;BME280;58632;51.718;19.446;2024-02-14T01:54:12;100071.13;;;2.72;100.00
70971;BME280;58632;51.718;19.446;2024-02-14T01:56:39;100067.32;;;2.66;100.00
70971;BME280;58632;51.718;19.446;2024-02-14T01:59:04;100065.61;;;2.61;100.00
70971;BME280;58632;51.718;19.446;2024-02-14T02:01:33;100066.09;;;2.57;100.00
70971;BME280;58632;51.718;19.446;2024-02-14T02:03:59;100064.16;;;2.52;100.00
70971;BME280;58632;51.718;19.446;2024-02-14T02:06:25;100069.77;;;2.49;100.00
70971;BME280;58632;51.718;19.446;2024-02-14T02:08:51;100071.96;;;2.45;100.00
70971;BME280;58632;51.718;19.446;2024-02-14T02:11:17;100071.94;;;2.41;100.00
70971;BME280;58632;51.718;19.446;2024-02-14T02:13:42;100071.13;;;2.35;100.00
70971;BME280;58632;51.718;19.446;2024-02-14T02:16:08;100069.58;;;2.28;100.00
70971;BME280;58632;51.718;19.446;2024-02-14T02:18:34;100071.32;;;2.21;100.00
70971;BME280;58632;51.718;19.446;2024-02-14T02:21:00;100075.42;;;2.14;100.00
70971;BME280;58632;51.718;19.446;2024-02-14T02:23:25;100076.01;;;2.06;100.00
70971;BME280;58632;51.718;19.446;2024-02-14T02:25:50;100074.94;;;1.98;100.00
70971;BME280;58632;51.718;19.446;2024-02-14T02:28:16;100075.18;;;1.91;100.00
70971;BME280;58632;51.718;19.446;2024-02-14T02:30:41;100076.74;;;1.83;100.00
70971;BME280;58632;51.718;19.446;2024-02-14T02:33:07;100077.33;;;1.77;100.00
70971;BME280;58632;51.718;19.446;2024-02-14T02:35:34;100075.12;;;1.70;100.00
70971;BME280;58632;51.718;19.446;2024-02-14T02:38:02;100079.55;;;1.65;100.00
70971;BME280;58632;51.718;19.446;2024-02-14T02:40:28;100080.83;;;1.59;100.00
70971;BME280;58632;51.718;19.446;2024-02-14T02:42:54;100085.45;;;1.50;100.00
70971;BME280;58632;51.718;19.446;2024-02-14T02:45:19;100093.36;;;1.44;100.00
70971;BME280;58632;51.718;19.446;2024-02-14T02:47:45;100094.21;;;1.37;100.00
70971;BME280;58632;51.718;19.446;2024-02-14T02:50:10;100096.45;;;1.28;100.00
70971;BME280;58632;51.718;19.446;2024-02-14T02:52:36;100099.20;;;1.19;100.00
70971;BME280;58632;51.718;19.446;2024-02-14T02:55:01;100102.98;;;1.11;100.00
70971;BME280;58632;51.718;19.446;2024-02-14T02:57:27;100103.71;;;1.04;100.00
70971;BME280;58632;51.718;19.446;2024-02-14T02:59:53;100105.23;;;0.97;100.00
70971;BME280;58632;51.718;19.446;2024-02-14T03:02:19;100107.17;;;0.92;100.00
70971;BME280;58632;51.718;19.446;2024-02-14T03:04:45;100105.17;;;0.88;100.00
70971;BME280;58632;51.718;19.446;2024-02-14T03:07:11;100108.39;;;0.85;100.00
70971;BME280;58632;51.718;19.446;2024-02-14T03:09:37;100104.35;;;0.81;100.00
70971;BME280;58632;51.718;19.446;2024-02-14T03:12:02;100108.71;;;0.77;100.00
70971;BME280;58632;51.718;19.446;2024-02-14T03:14:31;100106.06;;;0.72;100.00
70971;BME280;58632;51.718;19.446;2024-02-14T03:17:03;100109.10;;;0.67;100.00
70971;BME280;58632;51.718;19.446;2024-02-14T03:19:29;100111.17;;;0.60;100.00
70971;BME280;58632;51.718;19.446;2024-02-14T03:21:55;100112.06;;;0.55;100.00
70971;BME280;58632;51.718;19.446;2024-02-14T03:24:20;100109.41;;;0.50;100.00
70971;BME280;58632;51.718;19.446;2024-02-14T03:26:46;100108.31;;;0.46;100.00
70971;BME280;58632;51.718;19.446;2024-02-14T03:29:11;100109.61;;;0.42;100.00
70971;BME280;58632;51.718;19.446;2024-02-14T03:31:37;100111.77;;;0.39;100.00
70971;BME280;58632;51.718;19.446;2024-02-14T03:34:02;100109.16;;;0.36;100.00
70971;BME280;58632;51.718;19.446;2024-02-14T03:36:28;100111.85;;;0.34;100.00
70971;BME280;58632;51.718;19.446;2024-02-14T03:38:59;100110.58;;;0.30;100.00
70971;BME280;58632;51.718;19.446;2024-02-14T03:41:29;100114.58;;;0.28;100.00
70971;BME280;58632;51.718;19.446;2024-02-14T03:43:54;100117.21;;;0.24;100.00
70971;BME280;58632;51.718;19.446;2024-02-14T03:46:25;100120.36;;;0.18;100.00
70971;BME280;58632;51.718;19.446;2024-02-14T03:48:51;100120.92;;;0.14;100.00
70971;BME280;58632;51.718;19.446;2024-02-14T03:51:16;100123.47;;;0.08;100.00
70971;BME280;58632;51.718;19.446;2024-02-14T03:53:42;100122.17;;;0.04;100.00
70971;BME280;58632;51.718;19.446;2024-02-14T03:56:07;100123.29;;;0.00;100.00
70971;BME280;58632;51.718;19.446;2024-02-14T03:58:33;100121.67;;;-0.03;100.00
70971;BME280;58632;51.718;19.446;2024-02-14T04:01:04;100123.90;;;-0.06;100.00
70971;BME280;58632;51.718;19.446;2024-02-14T04:03:30;100126.23;;;-0.08;100.00
70971;BME280;58632;51.718;19.446;2024-02-14T04:05:55;100128.85;;;-0.12;100.00
70971;BME280;58632;51.718;19.446;2024-02-14T04:08:21;100130.95;;;-0.15;100.00
70971;BME280;58632;51.718;19.446;2024-02-14T04:10:47;100136.97;;;-0.18;100.00
70971;BME280;58632;51.718;19.446;2024-02-14T04:13:14;100140.30;;;-0.22;100.00
70971;BME280;58632;51.718;19.446;2024-02-14T04:15:40;100139.63;;;-0.26;100.00
70971;BME280;58632;51.718;19.446;2024-02-14T04:18:07;100140.86;;;-0.30;100.00
70971;BME280;58632;51.718;19.446;2024-02-14T04:20:33;100144.89;;;-0.33;100.00
70971;BME280;58632;51.718;19.446;2024-02-14T04:22:58;100144.60;;;-0.37;100.00
70971;BME280;58632;51.718;19.446;2024-02-14T04:25:24;100144.34;;;-0.40;100.00
70971;BME280;58632;51.718;19.446;2024-02-14T04:27:49;100144.02;;;-0.43;100.00
70971;BME280;58632;51.718;19.446;2024-02-14T04:30:14;100148.05;;;-0.43;100.00
70971;BME280;58632;51.718;19.446;2024-02-14T04:32:40;100148.05;;;-0.43;100.00
70971;BME280;58632;51.718;19.446;2024-02-14T04:35:05;100144.59;;;-0.44;100.00
70971;BME280;58632;51.718;19.446;2024-02-14T04:37:31;100143.38;;;-0.46;100.00
70971;BME280;58632;51.718;19.446;2024-02-14T04:39:58;100144.33;;;-0.47;100.00
70971;BME280;58632;51.718;19.446;2024-02-14T04:42:24;100142.71;;;-0.49;100.00
70971;BME280;58632;51.718;19.446;2024-02-14T04:44:49;100138.52;;;-0.52;100.00
70971;BME280;58632;51.718;19.446;2024-02-14T04:47:14;100138.73;;;-0.55;100.00
70971;BME280;58632;51.718;19.446;2024-02-14T04:49:40;100139.46;;;-0.56;100.00
70971;BME280;58632;51.718;19.446;2024-02-14T04:52:05;100137.95;;;-0.59;100.00
70971;BME280;58632;51.718;19.446;2024-02-14T04:54:34;100141.04;;;-0.61;100.00
70971;BME280;58632;51.718;19.446;2024-02-14T04:57:00;100144.50;;;-0.63;100.00
70971;BME280;58632;51.718;19.446;2024-02-14T04:59:25;100146.20;;;-0.63;100.00
70971;BME280;58632;51.718;19.446;2024-02-14T05:01:51;100147.38;;;-0.64;100.00
70971;BME280;58632;51.718;19.446;2024-02-14T05:04:18;100147.90;;;-0.65;100.00
70971;BME280;58632;51.718;19.446;2024-02-14T05:06:43;100149.98;;;-0.66;100.00
70971;BME280;58632;51.718;19.446;2024-02-14T05:09:09;100147.34;;;-0.68;100.00
70971;BME280;58632;51.718;19.446;2024-02-14T05:11:37;100145.82;;;-0.71;100.00
70971;BME280;58632;51.718;19.446;2024-02-14T05:14:03;100144.33;;;-0.74;100.00
70971;BME280;58632;51.718;19.446;2024-02-14T05:16:28;100149.49;;;-0.76;100.00
70971;BME280;58632;51.718;19.446;2024-02-14T05:18:54;100150.53;;;-0.78;100.00
70971;BME280;58632;51.718;19.446;2024-02-14T05:21:19;100151.13;;;-0.80;100.00
70971;BME280;58632;51.718;19.446;2024-02-14T05:23:45;100153.09;;;-0.82;100.00
70971;BME280;58632;51.718;19.446;2024-02-14T05:26:10;100155.75;;;-0.83;100.00
70971;BME280;58632;51.718;19.446;2024-02-14T05:28:36;100154.85;;;-0.82;100.00
70971;BME280;58632;51.718;19.446;2024-02-14T05:31:01;100157.23;;;-0.82;100.00
70971;BME280;58632;51.718;19.446;2024-02-14T05:33:28;100157.52;;;-0.83;100.00
70971;BME280;58632;51.718;19.446;2024-02-14T05:35:54;100159.67;;;-0.84;100.00
70971;BME280;58632;51.718;19.446;2024-02-14T05:38:19;100162.91;;;-0.86;100.00
70971;BME280;58632;51.718;19.446;2024-02-14T05:40:48;100162.04;;;-0.92;100.00
70971;BME280;58632;51.718;19.446;2024-02-14T05:43:14;100163.83;;;-0.98;100.00
70971;BME280;58632;51.718;19.446;2024-02-14T05:45:39;100163.73;;;-1.03;100.00
70971;BME280;58632;51.718;19.446;2024-02-14T05:48:05;100164.94;;;-1.07;100.00
70971;BME280;58632;51.718;19.446;2024-02-14T05:50:31;100166.48;;;-1.09;100.00
70971;BME280;58632;51.718;19.446;2024-02-14T05:52:56;100169.90;;;-1.11;100.00
70971;BME280;58632;51.718;19.446;2024-02-14T05:55:22;100174.44;;;-1.15;100.00
70971;BME280;58632;51.718;19.446;2024-02-14T05:57:48;100177.58;;;-1.18;100.00
70971;BME280;58632;51.718;19.446;2024-02-14T06:00:14;100179.02;;;-1.17;100.00
70971;BME280;58632;51.718;19.446;2024-02-14T06:02:39;100178.92;;;-1.14;100.00
70971;BME280;58632;51.718;19.446;2024-02-14T06:05:05;100179.69;;;-1.09;100.00
70971;BME280;58632;51.718;19.446;2024-02-14T06:07:34;100178.00;;;-1.04;100.00
70971;BME280;58632;51.718;19.446;2024-02-14T06:10:00;100178.71;;;-1.01;100.00
70971;BME280;58632;51.718;19.446;2024-02-14T06:12:25;100179.74;;;-0.98;100.00
70971;BME280;58632;51.718;19.446;2024-02-14T06:14:50;100178.18;;;-0.96;100.00
70971;BME280;58632;51.718;19.446;2024-02-14T06:17:16;100179.60;;;-0.93;100.00
70971;BME280;58632;51.718;19.446;2024-02-14T06:19:41;100179.50;;;-0.90;100.00
70971;BME280;58632;51.718;19.446;2024-02-14T06:22:07;100179.60;;;-0.87;100.00
70971;BME280;58632;51.718;19.446;2024-02-14T06:24:32;100180.34;;;-0.83;100.00
70971;BME280;58632;51.718;19.446;2024-02-14T06:26:58;100179.99;;;-0.79;100.00
70971;BME280;58632;51.718;19.446;2024-02-14T06:29:23;100174.70;;;-0.73;100.00
70971;BME280;58632;51.718;19.446;2024-02-14T06:31:49;100177.29;;;-0.66;100.00
70971;BME280;58632;51.718;19.446;2024-02-14T06:34:14;100178.87;;;-0.60;100.00
70971;BME280;58632;51.718;19.446;2024-02-14T06:36:40;100178.78;;;-0.54;100.00
70971;BME280;58632;51.718;19.446;2024-02-14T06:39:06;100182.50;;;-0.48;100.00
70971;BME280;58632;51.718;19.446;2024-02-14T06:41:31;100183.92;;;-0.40;100.00
70971;BME280;58632;51.718;19.446;2024-02-14T06:43:59;100184.39;;;-0.33;100.00
70971;BME280;58632;51.718;19.446;2024-02-14T06:46:25;100182.52;;;-0.24;100.00
70971;BME280;58632;51.718;19.446;2024-02-14T06:48:50;100187.83;;;-0.11;100.00
70971;BME280;58632;51.718;19.446;2024-02-14T06:51:15;100189.96;;;0.01;100.00
70971;BME280;58632;51.718;19.446;2024-02-14T06:53:41;100189.93;;;0.11;100.00
70971;BME280;58632;51.718;19.446;2024-02-14T06:56:06;100188.14;;;0.26;100.00
70971;BME280;58632;51.718;19.446;2024-02-14T06:58:32;100191.89;;;0.41;100.00
70971;BME280;58632;51.718;19.446;2024-02-14T07:00:57;100190.09;;;0.57;100.00
70971;BME280;58632;51.718;19.446;2024-02-14T07:03:22;100182.76;;;0.74;100.00
70971;BME280;58632;51.718;19.446;2024-02-14T07:05:48;100184.04;;;0.92;100.00
70971;BME280;58632;51.718;19.446;2024-02-14T07:08:13;100186.11;;;1.10;100.00
70971;BME280;58632;51.718;19.446;2024-02-14T07:10:40;100191.10;;;1.29;100.00
70971;BME280;58632;51.718;19.446;2024-02-14T07:13:05;100186.79;;;1.50;100.00
70971;BME280;58632;51.718;19.446;2024-02-14T07:15:31;100188.76;;;1.72;100.00
70971;BME280;58632;51.718;19.446;2024-02-14T07:17:56;100186.05;;;1.94;100.00
70971;BME280;58632;51.718;19.446;2024-02-14T07:20:23;100185.04;;;2.16;100.00
70971;BME280;58632;51.718;19.446;2024-02-14T07:22:51;100184.59;;;2.36;100.00
70971;BME280;58632;51.718;19.446;2024-02-14T07:25:21;100183.70;;;2.52;100.00
70971;BME280;58632;51.718;19.446;2024-02-14T07:27:46;100181.41;;;2.64;100.00
70971;BME280;58632;51.718;19.446;2024-02-14T07:30:14;100179.98;;;2.85;100.00
70971;BME280;58632;51.718;19.446;2024-02-14T07:32:40;100173.70;;;3.01;100.00
70971;BME280;58632;51.718;19.446;2024-02-14T07:35:06;100179.28;;;3.14;100.00
70971;BME280;58632;51.718;19.446;2024-02-14T07:37:34;100179.52;;;3.27;100.00
70971;BME280;58632;51.718;19.446;2024-02-14T07:40:01;100178.07;;;3.43;100.00
70971;BME280;58632;51.718;19.446;2024-02-14T07:42:27;100179.77;;;3.64;100.00
70971;BME280;58632;51.718;19.446;2024-02-14T07:44:54;100179.13;;;3.88;100.00
70971;BME280;58632;51.718;19.446;2024-02-14T07:47:21;100176.38;;;4.03;100.00
70971;BME280;58632;51.718;19.446;2024-02-14T07:49:46;100172.54;;;4.05;100.00
70971;BME280;58632;51.718;19.446;2024-02-14T07:52:12;100174.96;;;4.06;100.00
70971;BME280;58632;51.718;19.446;2024-02-14T07:54:39;100176.11;;;4.13;100.00
70971;BME280;58632;51.718;19.446;2024-02-14T07:57:06;100178.63;;;4.22;100.00
70971;BME280;58632;51.718;19.446;2024-02-14T07:59:31;100180.42;;;4.39;100.00
70971;BME280;58632;51.718;19.446;2024-02-14T08:01:57;100182.41;;;4.60;100.00
70971;BME280;58632;51.718;19.446;2024-02-14T08:04:22;100185.33;;;4.87;100.00
70971;BME280;58632;51.718;19.446;2024-02-14T08:06:48;100185.59;;;5.09;100.00
70971;BME280;58632;51.718;19.446;2024-02-14T08:09:16;100185.15;;;5.28;100.00
70971;BME280;58632;51.718;19.446;2024-02-14T08:11:42;100187.06;;;5.39;100.00
70971;BME280;58632;51.718;19.446;2024-02-14T08:14:07;100187.21;;;5.44;100.00
70971;BME280;58632;51.718;19.446;2024-02-14T08:16:33;100185.05;;;5.55;100.00
70971;BME280;58632;51.718;19.446;2024-02-14T08:18:58;100181.83;;;5.71;100.00
70971;BME280;58632;51.718;19.446;2024-02-14T08:21:24;100182.45;;;5.87;100.00
70971;BME280;58632;51.718;19.446;2024-02-14T08:23:51;100183.52;;;6.00;100.00
70971;BME280;58632;51.718;19.446;2024-02-14T08:26:16;100181.46;;;6.24;100.00
70971;BME280;58632;51.718;19.446;2024-02-14T08:28:42;100179.25;;;6.49;100.00
70971;BME280;58632;51.718;19.446;2024-02-14T08:31:10;100180.55;;;6.62;100.00
70971;BME280;58632;51.718;19.446;2024-02-14T08:33:36;100177.34;;;6.73;100.00
70971;BME280;58632;51.718;19.446;2024-02-14T08:36:02;100177.52;;;6.91;100.00
70971;BME280;58632;51.718;19.446;2024-02-14T08:38:27;100177.70;;;6.93;100.00
70971;BME280;58632;51.718;19.446;2024-02-14T08:40:53;100179.30;;;7.01;100.00
70971;BME280;58632;51.718;19.446;2024-02-14T08:43:18;100177.89;;;7.02;100.00
70971;BME280;58632;51.718;19.446;2024-02-14T08:45:44;100179.61;;;7.03;100.00
70971;BME280;58632;51.718;19.446;2024-02-14T08:48:09;100185.44;;;7.14;100.00
70971;BME280;58632;51.718;19.446;2024-02-14T08:50:34;100182.73;;;7.17;100.00
70971;BME280;58632;51.718;19.446;2024-02-14T08:53:00;100184.11;;;7.09;100.00
70971;BME280;58632;51.718;19.446;2024-02-14T08:55:26;100182.80;;;7.07;100.00
70971;BME280;58632;51.718;19.446;2024-02-14T08:57:51;100180.20;;;6.99;100.00
70971;BME280;58632;51.718;19.446;2024-02-14T09:00:16;100177.30;;;7.05;100.00
70971;BME280;58632;51.718;19.446;2024-02-14T09:02:45;100179.11;;;7.13;100.00
70971;BME280;58632;51.718;19.446;2024-02-14T09:05:12;100175.73;;;7.19;100.00
70971;BME280;58632;51.718;19.446;2024-02-14T09:07:37;100174.48;;;7.25;100.00
70971;BME280;58632;51.718;19.446;2024-02-14T09:10:03;100170.11;;;7.34;100.00
70971;BME280;58632;51.718;19.446;2024-02-14T09:12:29;100170.69;;;7.49;100.00
70971;BME280;58632;51.718;19.446;2024-02-14T09:14:54;100170.80;;;7.62;100.00
70971;BME280;58632;51.718;19.446;2024-02-14T09:17:24;100173.34;;;7.76;100.00
70971;BME280;58632;51.718;19.446;2024-02-14T09:19:49;100173.79;;;7.83;100.00
70971;BME280;58632;51.718;19.446;2024-02-14T09:22:15;100173.37;;;8.01;100.00
70971;BME280;58632;51.718;19.446;2024-02-14T09:24:46;100174.39;;;8.17;100.00
70971;BME280;58632;51.718;19.446;2024-02-14T09:27:12;100173.93;;;8.24;100.00
70971;BME280;58632;51.718;19.446;2024-02-14T09:29:37;100176.11;;;8.21;100.00
70971;BME280;58632;51.718;19.446;2024-02-14T09:32:03;100172.02;;;8.16;100.00
70971;BME280;58632;51.718;19.446;2024-02-14T09:34:29;100172.10;;;8.13;100.00
70971;BME280;58632;51.718;19.446;2024-02-14T09:36:54;100176.42;;;8.19;100.00
70971;BME280;58632;51.718;19.446;2024-02-14T09:39:21;100177.35;;;8.29;100.00
70971;BME280;58632;51.718;19.446;2024-02-14T09:41:51;100177.99;;;8.39;100.00
70971;BME280;58632;51.718;19.446;2024-02-14T09:44:16;100171.48;;;8.32;100.00
70971;BME280;58632;51.718;19.446;2024-02-14T09:46:42;100169.11;;;8.22;100.00
70971;BME280;58632;51.718;19.446;2024-02-14T09:49:08;100169.14;;;8.17;100.00
70971;BME280;58632;51.718;19.446;2024-02-14T09:51:34;100173.13;;;8.18;100.00
70971;BME280;58632;51.718;19.446;2024-02-14T09:54:00;100176.17;;;8.25;100.00
70971;BME280;58632;51.718;19.446;2024-02-14T09:56:28;100174.30;;;8.29;100.00
70971;BME280;58632;51.718;19.446;2024-02-14T09:58:54;100178.27;;;8.34;100.00
70971;BME280;58632;51.718;19.446;2024-02-14T10:01:23;100180.70;;;8.44;100.00
70971;BME280;58632;51.718;19.446;2024-02-14T10:03:49;100179.75;;;8.55;100.00
70971;BME280;58632;51.718;19.446;2024-02-14T10:06:15;100184.59;;;8.63;100.00
70971;BME280;58632;51.718;19.446;2024-02-14T10:08:41;100176.73;;;8.75;100.00
70971;BME280;58632;51.718;19.446;2024-02-14T10:11:06;100175.83;;;8.80;100.00
70971;BME280;58632;51.718;19.446;2024-02-14T10:13:33;100171.92;;;8.87;100.00
70971;BME280;58632;51.718;19.446;2024-02-14T10:15:59;100174.25;;;8.95;100.00
70971;BME280;58632;51.718;19.446;2024-02-14T10:18:25;100173.50;;;8.98;100.00
70971;BME280;58632;51.718;19.446;2024-02-14T10:20:55;100169.36;;;9.00;100.00
70971;BME280;58632;51.718;19.446;2024-02-14T10:23:23;100171.32;;;9.06;100.00
70971;BME280;58632;51.718;19.446;2024-02-14T10:25:49;100173.85;;;9.13;100.00
70971;BME280;58632;51.718;19.446;2024-02-14T10:28:15;100171.01;;;9.16;100.00
70971;BME280;58632;51.718;19.446;2024-02-14T10:30:45;100164.66;;;9.22;100.00
70971;BME280;58632;51.718;19.446;2024-02-14T10:33:10;100157.60;;;9.23;100.00
70971;BME280;58632;51.718;19.446;2024-02-14T10:35:36;100157.55;;;9.22;100.00
70971;BME280;58632;51.718;19.446;2024-02-14T10:38:03;100153.34;;;9.14;100.00
70971;BME280;58632;51.718;19.446;2024-02-14T10:40:29;100151.33;;;9.02;100.00
70971;BME280;58632;51.718;19.446;2024-02-14T10:42:57;100149.29;;;9.01;100.00
70971;BME280;58632;51.718;19.446;2024-02-14T10:45:24;100145.27;;;9.00;100.00
70971;BME280;58632;51.718;19.446;2024-02-14T10:47:53;100143.92;;;9.01;100.00
70971;BME280;58632;51.718;19.446;2024-02-14T10:50:18;100143.14;;;9.08;100.00
70971;BME280;58632;51.718;19.446;2024-02-14T10:52:46;100145.10;;;9.02;99.42
70971;BME280;58632;51.718;19.446;2024-02-14T10:55:14;100139.55;;;8.90;100.00
70971;BME280;58632;51.718;19.446;2024-02-14T10:57:41;100136.66;;;8.83;99.86
70971;BME280;58632;51.718;19.446;2024-02-14T11:00:10;100132.86;;;8.80;100.00
70971;BME280;58632;51.718;19.446;2024-02-14T11:02:39;100130.34;;;8.83;100.00
70971;BME280;58632;51.718;19.446;2024-02-14T11:05:05;100131.83;;;8.88;100.00
70971;BME280;58632;51.718;19.446;2024-02-14T11:07:32;100131.90;;;8.95;100.00
70971;BME280;58632;51.718;19.446;2024-02-14T11:12:36;100122.59;;;9.03;100.00
70971;BME280;58632;51.718;19.446;2024-02-14T11:18:03;100122.54;;;9.02;100.00
70971;BME280;58632;51.718;19.446;2024-02-14T11:20:32;100121.13;;;8.99;100.00
70971;BME280;58632;51.718;19.446;2024-02-14T11:23:01;100117.10;;;9.01;100.00
70971;BME280;58632;51.718;19.446;2024-02-14T11:25:29;100115.54;;;9.08;100.00
70971;BME280;58632;51.718;19.446;2024-02-14T11:27:55;100108.94;;;9.16;100.00
70971;BME280;58632;51.718;19.446;2024-02-14T11:30:31;100110.79;;;9.19;100.00
70971;BME280;58632;51.718;19.446;2024-02-14T11:35:57;100106.59;;;9.21;99.03
70971;BME280;58632;51.718;19.446;2024-02-14T11:38:24;100105.73;;;9.16;96.33
70971;BME280;58632;51.718;19.446;2024-02-14T11:40:51;100102.83;;;9.10;99.03
70971;BME280;58632;51.718;19.446;2024-02-14T11:43:17;100100.02;;;9.11;98.46
70971;BME280;58632;51.718;19.446;2024-02-14T11:45:43;100099.77;;;9.08;98.04
70971;BME280;58632;51.718;19.446;2024-02-14T11:48:09;100096.49;;;9.07;99.63
70971;BME280;58632;51.718;19.446;2024-02-14T11:50:35;100097.59;;;9.10;99.90
70971;BME280;58632;51.718;19.446;2024-02-14T11:53:03;100092.97;;;9.11;99.92
70971;BME280;58632;51.718;19.446;2024-02-14T11:55:31;100092.62;;;9.02;90.81
70971;BME280;58632;51.718;19.446;2024-02-14T11:57:57;100088.08;;;8.92;92.57
70971;BME280;58632;51.718;19.446;2024-02-14T12:00:23;100084.55;;;8.81;91.00
70971;BME280;58632;51.718;19.446;2024-02-14T12:02:50;100080.67;;;8.69;86.05
70971;BME280;58632;51.718;19.446;2024-02-14T12:05:16;100081.48;;;8.62;86.79
70971;BME280;58632;51.718;19.446;2024-02-14T12:07:42;100082.73;;;8.60;89.86
70971;BME280;58632;51.718;19.446;2024-02-14T12:10:09;100080.45;;;8.61;92.96
70971;BME280;58632;51.718;19.446;2024-02-14T12:12:34;100081.79;;;8.62;91.34
70971;BME280;58632;51.718;19.446;2024-02-14T12:15:01;100077.58;;;8.63;92.32
70971;BME280;58632;51.718;19.446;2024-02-14T12:17:27;100081.04;;;8.68;95.57
70971;BME280;58632;51.718;19.446;2024-02-14T12:19:53;100076.48;;;8.72;95.49
70971;BME280;58632;51.718;19.446;2024-02-14T12:22:18;100073.59;;;8.75;97.15
70971;BME280;58632;51.718;19.446;2024-02-14T12:24:44;100069.40;;;8.76;96.67
70971;BME280;58632;51.718;19.446;2024-02-14T12:27:10;100068.07;;;8.72;88.22
70971;BME280;58632;51.718;19.446;2024-02-14T12:29:36;100071.36;;;8.65;85.29
70971;BME280;58632;51.718;19.446;2024-02-14T12:32:07;100070.52;;;8.59;87.01
70971;BME280;58632;51.718;19.446;2024-02-14T12:34:33;100072.24;;;8.59;91.26
70971;BME280;58632;51.718;19.446;2024-02-14T12:36:59;100072.52;;;8.60;88.85
70971;BME280;58632;51.718;19.446;2024-02-14T12:39:28;100067.77;;;8.59;90.57
70971;BME280;58632;51.718;19.446;2024-02-14T12:41:54;100065.77;;;8.58;89.01